createdAt,value
2023-03-05T00:00:54.539Z,2.42
2023-03-05T00:03:21.171Z,1.85
2023-03-05T00:05:47.815Z,2.10
2023-03-05T00:08:14.494Z,1.83
2023-03-05T00:10:41.132Z,2.00
2023-03-05T00:13:08.078Z,1.40
2023-03-05T00:15:40.140Z,2.22
2023-03-05T00:18:06.725Z,2.13
2023-03-05T00:20:35.142Z,1.60
2023-03-05T00:23:02.066Z,2.25
2023-03-05T00:25:28.722Z,2.00
2023-03-05T00:27:55.324Z,2.10
2023-03-05T00:30:21.964Z,2.73
2023-03-05T00:32:48.533Z,2.53
2023-03-05T00:35:15.257Z,2.60
2023-03-05T00:37:41.827Z,2.58
2023-03-05T00:40:09.902Z,3.03
2023-03-05T00:42:38.619Z,2.57
2023-03-05T00:45:06.648Z,2.65
2023-03-05T00:47:33.277Z,2.85
2023-03-05T00:49:59.868Z,2.58
2023-03-05T00:52:26.910Z,2.55
2023-03-05T00:54:53.493Z,2.60
2023-03-05T00:57:20.093Z,2.70
2023-03-05T00:59:46.801Z,2.53
2023-03-05T01:02:13.642Z,2.55
2023-03-05T01:04:40.259Z,2.47
2023-03-05T01:07:07.017Z,2.37
2023-03-05T01:09:33.637Z,2.90
2023-03-05T01:12:00.478Z,2.00
2023-03-05T01:14:28.303Z,2.40
2023-03-05T01:16:55.108Z,3.42
2023-03-05T01:19:24.075Z,3.00
2023-03-05T01:21:50.640Z,2.50
2023-03-05T01:24:17.211Z,2.35
2023-03-05T01:26:44.576Z,2.42
2023-03-05T01:29:11.258Z,2.50
2023-03-05T01:31:38.064Z,2.30
2023-03-05T01:34:04.705Z,2.25
2023-03-05T01:36:31.925Z,1.85
2023-03-05T01:38:58.877Z,2.20
2023-03-05T01:41:25.933Z,2.25
2023-03-05T01:43:55.330Z,2.03
2023-03-05T01:46:36.970Z,2.25
2023-03-05T01:49:18.396Z,2.90
2023-03-05T01:51:52.312Z,2.38
2023-03-05T01:54:21.720Z,2.40
2023-03-05T01:56:51.256Z,2.53
2023-03-05T01:59:18.992Z,2.70
2023-03-05T02:01:50.522Z,2.58
2023-03-05T02:04:20.012Z,2.28
2023-03-05T02:06:47.777Z,2.40
2023-03-05T02:09:14.562Z,2.73
2023-03-05T02:11:42.232Z,2.35
2023-03-05T02:14:10.349Z,2.53
2023-03-05T02:16:38.470Z,2.97
2023-03-05T02:19:08.215Z,2.60
2023-03-05T02:21:44.926Z,2.40
2023-03-05T02:24:17.040Z,2.65
2023-03-05T02:26:45.294Z,3.30
2023-03-05T02:29:17.280Z,2.97
2023-03-05T02:31:44.146Z,3.03
2023-03-05T02:34:10.885Z,2.80
2023-03-05T02:36:37.571Z,2.47
2023-03-05T02:39:04.732Z,2.17
2023-03-05T02:41:31.341Z,2.70
2023-03-05T02:43:58.217Z,2.40
2023-03-05T02:46:24.873Z,2.43
2023-03-05T02:48:51.549Z,2.20
2023-03-05T02:51:18.581Z,2.38
2023-03-05T02:53:45.315Z,2.15
2023-03-05T02:56:11.919Z,2.03
2023-03-05T02:58:38.692Z,2.50
2023-03-05T03:01:05.396Z,2.22
2023-03-05T03:03:32.045Z,1.98
2023-03-05T03:05:58.640Z,2.88
2023-03-05T03:08:25.306Z,2.00
2023-03-05T03:10:51.898Z,2.00
2023-03-05T03:13:18.506Z,2.60
2023-03-05T03:15:46.346Z,2.20
2023-03-05T03:18:13.181Z,1.80
2023-03-05T03:20:40.044Z,1.98
2023-03-05T03:23:07.161Z,2.20
2023-03-05T03:25:34.076Z,2.13
2023-03-05T03:28:00.702Z,2.17
2023-03-05T03:30:27.311Z,2.08
2023-03-05T03:32:53.944Z,2.00
2023-03-05T03:35:20.617Z,1.90
2023-03-05T03:37:47.751Z,1.92
2023-03-05T03:40:14.411Z,1.58
2023-03-05T03:42:41.029Z,1.90
2023-03-05T03:45:08.272Z,2.28
2023-03-05T03:47:34.859Z,1.77
2023-03-05T03:50:01.636Z,2.20
2023-03-05T03:52:28.325Z,2.00
2023-03-05T03:55:01.186Z,1.98
2023-03-05T03:57:33.346Z,2.00
2023-03-05T04:00:00.821Z,1.93
2023-03-05T04:02:27.788Z,1.95
2023-03-05T04:04:54.486Z,1.77
2023-03-05T04:07:21.127Z,1.50
2023-03-05T04:09:47.732Z,2.00
2023-03-05T04:12:18.092Z,2.00
2023-03-05T04:14:46.089Z,1.73
2023-03-05T04:17:13.288Z,1.40
2023-03-05T04:19:40.349Z,1.52
2023-03-05T04:22:10.781Z,1.80
2023-03-05T04:24:38.260Z,1.63
2023-03-05T04:27:06.402Z,1.35
2023-03-05T04:29:33.688Z,1.70
2023-03-05T04:32:00.411Z,1.65
2023-03-05T04:34:27.304Z,2.03
2023-03-05T04:36:54.080Z,2.10
2023-03-05T04:39:20.947Z,2.03
2023-03-05T04:41:48.351Z,1.45
2023-03-05T04:44:15.057Z,1.55
2023-03-05T04:46:41.817Z,1.60
2023-03-05T04:49:08.472Z,1.60
2023-03-05T04:51:35.067Z,1.50
2023-03-05T04:54:01.633Z,1.30
2023-03-05T04:56:28.290Z,1.33
2023-03-05T04:58:55.090Z,1.20
2023-03-05T05:01:21.747Z,1.17
2023-03-05T05:03:48.432Z,1.30
2023-03-05T05:06:15.103Z,1.17
2023-03-05T05:08:41.721Z,1.27
2023-03-05T05:11:12.673Z,1.10
2023-03-05T05:13:39.252Z,1.30
2023-03-05T05:16:09.462Z,1.58
2023-03-05T05:18:36.123Z,1.40
2023-03-05T05:21:06.627Z,1.40
2023-03-05T05:23:33.240Z,1.23
2023-03-05T05:26:02.035Z,1.60
2023-03-05T05:28:29.154Z,1.60
2023-03-05T05:30:56.824Z,1.77
2023-03-05T05:33:24.332Z,1.60
2023-03-05T05:35:51.261Z,1.70
2023-03-05T05:38:18.136Z,1.70
2023-03-05T05:40:44.771Z,1.70
2023-03-05T05:43:11.420Z,1.63
2023-03-05T05:45:38.710Z,1.40
2023-03-05T05:48:05.674Z,1.40
2023-03-05T05:50:32.313Z,1.77
2023-03-05T05:52:58.984Z,1.33
2023-03-05T05:55:25.548Z,1.88
2023-03-05T05:57:52.149Z,1.52
2023-03-05T06:00:19.244Z,1.63
2023-03-05T06:02:45.902Z,1.13
2023-03-05T06:05:14.737Z,1.50
2023-03-05T06:07:41.605Z,1.70
2023-03-05T06:10:09.814Z,1.60
2023-03-05T06:12:36.386Z,1.70
2023-03-05T06:15:03.169Z,1.17
2023-03-05T06:17:31.110Z,1.20
2023-03-05T06:19:58.785Z,1.60
2023-03-05T06:22:25.777Z,1.83
2023-03-05T06:24:52.482Z,1.80
2023-03-05T06:27:19.228Z,1.30
2023-03-05T06:29:45.829Z,1.60
2023-03-05T06:32:12.635Z,1.65
2023-03-05T06:34:39.263Z,1.42
2023-03-05T06:37:06.019Z,1.45
2023-03-05T06:39:33.073Z,1.70
2023-03-05T06:41:59.644Z,1.98
2023-03-05T06:44:26.332Z,1.85
2023-03-05T06:46:52.887Z,1.48
2023-03-05T06:49:19.731Z,1.63
2023-03-05T06:51:46.318Z,1.77
2023-03-05T06:54:15.465Z,1.45
2023-03-05T06:56:45.048Z,1.45
2023-03-05T06:59:13.263Z,1.30
2023-03-05T07:01:40.036Z,1.50
2023-03-05T07:04:07.058Z,1.50
2023-03-05T07:06:36.179Z,1.55
2023-03-05T07:09:04.528Z,1.52
2023-03-05T07:11:32.017Z,1.45
2023-03-05T07:13:59.065Z,1.33
2023-03-05T07:16:28.509Z,1.57
2023-03-05T07:18:57.154Z,1.50
2023-03-05T07:21:30.872Z,1.67
2023-03-05T07:24:02.092Z,1.60
2023-03-05T07:26:29.050Z,1.20
2023-03-05T07:28:55.710Z,1.60
2023-03-05T07:31:27.299Z,1.10
2023-03-05T07:33:54.218Z,1.35
2023-03-05T07:36:20.858Z,1.48
2023-03-05T07:38:47.509Z,1.27
2023-03-05T07:41:19.951Z,1.50
2023-03-05T07:43:48.659Z,1.38
2023-03-05T07:46:17.341Z,1.30
2023-03-05T07:48:44.372Z,1.27
2023-03-05T07:51:15.846Z,1.02
2023-03-05T07:53:43.805Z,1.00
2023-03-05T07:56:10.867Z,1.10
2023-03-05T07:58:37.676Z,1.25
2023-03-05T08:01:04.787Z,1.10
2023-03-05T08:03:31.457Z,1.13
2023-03-05T08:05:58.029Z,1.10
2023-03-05T08:08:24.604Z,1.25
2023-03-05T08:10:51.214Z,1.27
2023-03-05T08:13:17.819Z,1.25
2023-03-05T08:15:44.654Z,1.45
2023-03-05T08:18:11.327Z,1.03
2023-03-05T08:20:37.930Z,1.45
2023-03-05T08:23:04.704Z,1.50
2023-03-05T08:25:31.924Z,1.17
2023-03-05T08:27:58.640Z,1.20
2023-03-05T08:30:27.215Z,1.50
2023-03-05T08:32:54.638Z,1.38
2023-03-05T08:35:21.891Z,1.58
2023-03-05T08:37:48.573Z,1.63
2023-03-05T08:40:17.943Z,1.17
2023-03-05T08:42:44.949Z,1.60
2023-03-05T08:45:12.476Z,1.70
2023-03-05T08:47:39.182Z,1.63
2023-03-05T08:50:06.257Z,1.60
2023-03-05T08:52:32.941Z,1.60
2023-03-05T08:54:59.500Z,1.50
2023-03-05T08:57:26.142Z,2.05
2023-03-05T08:59:52.736Z,1.70
2023-03-05T09:02:19.288Z,1.50
2023-03-05T09:04:45.977Z,1.70
2023-03-05T09:07:13.009Z,1.60
2023-03-05T09:09:40.239Z,1.60
2023-03-05T09:12:07.300Z,1.60
2023-03-05T09:14:33.888Z,1.65
2023-03-05T09:17:01.968Z,1.45
2023-03-05T09:19:28.592Z,1.33
2023-03-05T09:21:56.990Z,1.50
2023-03-05T09:24:23.746Z,1.45
2023-03-05T09:26:50.434Z,1.77
2023-03-05T09:29:17.213Z,1.30
2023-03-05T09:31:44.126Z,1.67
2023-03-05T09:34:11.938Z,1.63
2023-03-05T09:36:38.668Z,1.52
2023-03-05T09:39:06.986Z,1.63
2023-03-05T09:41:51.036Z,1.50
2023-03-05T09:44:43.334Z,1.50
2023-03-05T09:47:37.170Z,1.45
2023-03-05T09:50:23.511Z,1.65
2023-03-05T09:52:53.965Z,1.17
2023-03-05T09:55:34.302Z,1.67
2023-03-05T09:58:15.387Z,1.23
2023-03-05T10:00:51.085Z,1.30
2023-03-05T10:03:25.431Z,1.40
2023-03-05T10:06:26.352Z,1.38
2023-03-05T10:08:55.390Z,1.15
2023-03-05T10:11:53.113Z,1.53
2023-03-05T10:14:35.545Z,1.20
2023-03-05T10:17:34.984Z,1.23
2023-03-05T10:20:20.294Z,1.48
2023-03-05T10:22:57.006Z,1.35
2023-03-05T10:25:26.128Z,1.23
2023-03-05T10:27:59.380Z,1.20
2023-03-05T10:30:34.276Z,1.20
2023-03-05T10:33:03.727Z,1.50
2023-03-05T10:35:33.464Z,1.38
2023-03-05T10:38:18.276Z,1.20
2023-03-05T10:40:52.596Z,1.60
2023-03-05T10:43:35.976Z,1.17
2023-03-05T10:46:04.471Z,1.35
2023-03-05T10:48:47.419Z,1.55
2023-03-05T10:51:36.379Z,1.27
2023-03-05T10:54:16.611Z,0.98
2023-03-05T10:56:43.188Z,1.13
2023-03-05T10:59:09.766Z,1.00
2023-03-05T11:01:39.429Z,1.13
2023-03-05T11:04:32.158Z,1.17
2023-03-05T11:06:58.837Z,1.05
2023-03-05T11:09:34.154Z,1.00
2023-03-05T11:12:06.164Z,1.25
2023-03-05T11:14:34.195Z,1.25
2023-03-05T11:17:03.609Z,1.40
2023-03-05T11:19:33.311Z,1.83
2023-03-05T11:22:18.960Z,1.10
2023-03-05T11:25:02.453Z,1.35
2023-03-05T11:27:44.477Z,1.27
2023-03-05T11:30:40.919Z,1.57
2023-03-05T11:33:20.291Z,1.10
2023-03-05T11:35:48.401Z,1.08
2023-03-05T11:38:19.694Z,1.13
2023-03-05T11:40:47.203Z,1.08
2023-03-05T11:43:19.949Z,1.40
2023-03-05T11:45:50.721Z,1.08
2023-03-05T11:48:26.467Z,1.40
2023-03-05T11:50:57.739Z,1.15
2023-03-05T11:53:30.690Z,1.15
2023-03-05T11:55:57.236Z,1.97
2023-03-05T11:58:44.156Z,1.00
2023-03-05T12:01:23.280Z,1.08
2023-03-05T12:03:51.230Z,1.17
2023-03-05T12:06:34.802Z,1.20
2023-03-05T12:09:08.787Z,1.40
2023-03-05T12:11:36.747Z,1.08
2023-03-05T12:14:25.633Z,1.23
2023-03-05T12:16:58.863Z,1.05
2023-03-05T12:20:01.313Z,1.40
2023-03-05T12:22:38.370Z,1.13
2023-03-05T12:25:32.220Z,1.20
2023-03-05T12:27:59.597Z,1.10
2023-03-05T12:30:35.243Z,1.17
2023-03-05T12:33:03.519Z,1.20
2023-03-05T12:35:38.381Z,1.17
2023-03-05T12:38:27.713Z,1.20
2023-03-05T12:41:23.299Z,1.20
2023-03-05T12:44:05.244Z,0.88
2023-03-05T12:46:45.669Z,1.02
2023-03-05T12:49:22.869Z,1.10
2023-03-05T12:51:51.439Z,1.00
2023-03-05T12:54:29.583Z,1.20
2023-03-05T12:57:02.203Z,1.15
2023-03-05T12:59:40.071Z,1.13
2023-03-05T13:02:20.566Z,1.17
2023-03-05T13:04:47.763Z,1.38
2023-03-05T13:07:17.660Z,1.00
2023-03-05T13:09:58.709Z,1.15
2023-03-05T13:12:29.050Z,1.10
2023-03-05T13:15:02.381Z,1.10
2023-03-05T13:17:38.052Z,1.17
2023-03-05T13:20:31.524Z,1.38
2023-03-05T13:23:19.719Z,1.13
2023-03-05T13:26:00.586Z,1.40
2023-03-05T13:28:28.263Z,1.30
2023-03-05T13:30:58.489Z,1.17
2023-03-05T13:33:54.134Z,1.23
2023-03-05T13:36:23.072Z,2.15
2023-03-05T13:38:50.293Z,1.65
2023-03-05T13:41:29.985Z,1.27
2023-03-05T13:43:59.506Z,1.50
2023-03-05T13:46:28.680Z,1.50
2023-03-05T13:48:56.056Z,1.27
2023-03-05T13:51:22.894Z,1.40
2023-03-05T13:53:50.727Z,1.50
2023-03-05T13:56:20.525Z,1.48
2023-03-05T13:58:55.327Z,1.45
2023-03-05T14:01:43.642Z,1.25
2023-03-05T14:04:13.272Z,1.33
2023-03-05T14:07:07.610Z,1.33
2023-03-05T14:09:40.121Z,2.80
2023-03-05T14:12:06.877Z,1.33
2023-03-05T14:14:38.459Z,1.20
2023-03-05T14:17:35.847Z,1.13
2023-03-05T14:20:19.637Z,1.20
2023-03-05T14:22:50.579Z,1.25
2023-03-05T14:25:38.655Z,1.30
2023-03-05T14:28:27.981Z,1.38
2023-03-05T14:30:56.828Z,1.00
2023-03-05T14:33:29.485Z,1.40
2023-03-05T14:35:57.735Z,1.40
2023-03-05T14:38:30.398Z,1.55
2023-03-05T14:40:57.387Z,1.90
2023-03-05T14:43:24.088Z,2.25
2023-03-05T14:45:50.728Z,2.17
2023-03-05T14:48:19.174Z,2.10
2023-03-05T14:50:52.503Z,1.95
2023-03-05T14:53:22.961Z,1.50
2023-03-05T14:55:56.451Z,1.70
2023-03-05T14:58:26.211Z,1.60
2023-03-05T15:00:54.137Z,1.40
2023-03-05T15:03:21.962Z,1.60
2023-03-05T15:05:50.978Z,1.52
2023-03-05T15:08:19.810Z,1.50
2023-03-05T15:10:46.792Z,1.47
2023-03-05T15:13:14.984Z,1.60
2023-03-05T15:15:43.075Z,1.30
2023-03-05T15:18:13.029Z,1.20
2023-03-05T15:20:40.572Z,1.25
2023-03-05T15:23:07.247Z,1.63
2023-03-05T15:25:33.898Z,1.20
2023-03-05T15:28:00.781Z,1.30
2023-03-05T15:30:39.421Z,1.73
2023-03-05T15:33:09.281Z,1.30
2023-03-05T15:35:37.129Z,1.30
2023-03-05T15:38:04.669Z,1.30
2023-03-05T15:40:31.469Z,1.30
2023-03-05T15:43:00.237Z,1.20
2023-03-05T15:45:27.524Z,1.10
2023-03-05T15:47:54.383Z,1.13
2023-03-05T15:50:21.912Z,1.20
2023-03-05T15:52:49.441Z,1.30
2023-03-05T15:55:18.140Z,1.25
2023-03-05T15:57:47.094Z,0.80
2023-03-05T16:00:16.228Z,1.17
2023-03-05T16:02:42.853Z,1.13
2023-03-05T16:05:10.329Z,1.30
2023-03-05T16:07:40.706Z,1.17
2023-03-05T16:10:10.525Z,1.27
2023-03-05T16:12:42.927Z,1.20
2023-03-05T16:15:16.148Z,1.10
2023-03-05T16:17:45.336Z,1.00
2023-03-05T16:20:13.214Z,1.20
2023-03-05T16:22:39.861Z,0.88
2023-03-05T16:25:07.584Z,1.00
2023-03-05T16:27:35.841Z,0.98
2023-03-05T16:30:03.787Z,1.20
2023-03-05T16:32:30.499Z,0.88
2023-03-05T16:34:58.074Z,1.33
2023-03-05T16:37:25.460Z,0.70
2023-03-05T16:39:52.097Z,1.05
2023-03-05T16:42:18.888Z,1.00
2023-03-05T16:44:47.252Z,1.15
2023-03-05T16:47:13.996Z,1.27
2023-03-05T16:49:40.755Z,0.90
2023-03-05T16:52:19.720Z,1.08
2023-03-05T16:54:48.161Z,1.00
2023-03-05T16:57:15.250Z,1.00
2023-03-05T16:59:43.487Z,1.30
2023-03-05T17:02:10.705Z,1.00
2023-03-05T17:04:37.319Z,1.02
2023-03-05T17:07:05.400Z,0.82
2023-03-05T17:09:32.052Z,0.90
2023-03-05T17:11:58.802Z,0.70
2023-03-05T17:14:25.775Z,0.70
2023-03-05T17:16:52.433Z,1.00
2023-03-05T17:19:19.380Z,1.30
2023-03-05T17:21:46.209Z,0.90
2023-03-05T17:24:12.825Z,1.30
2023-03-05T17:26:39.498Z,0.83
2023-03-05T17:29:06.239Z,1.27
2023-03-05T17:31:32.991Z,0.90
2023-03-05T17:33:59.936Z,1.02
2023-03-05T17:36:26.590Z,0.90
2023-03-05T17:38:53.698Z,0.90
2023-03-05T17:41:20.458Z,0.95
2023-03-05T17:43:47.232Z,1.02
2023-03-05T17:46:14.781Z,0.80
2023-03-05T17:48:41.637Z,0.98
2023-03-05T17:51:11.397Z,1.10
2023-03-05T17:53:40.004Z,0.90
2023-03-05T17:56:08.986Z,0.85
2023-03-05T17:58:35.789Z,0.90
2023-03-05T18:01:03.267Z,1.33
2023-03-05T18:03:29.989Z,1.17
2023-03-05T18:05:56.732Z,0.85
2023-03-05T18:08:23.405Z,0.90
2023-03-05T18:10:50.078Z,1.13
2023-03-05T18:13:16.709Z,1.02
2023-03-05T18:15:47.490Z,1.30
2023-03-05T18:18:18.273Z,1.17
2023-03-05T18:20:45.863Z,1.20
2023-03-05T18:23:13.253Z,1.15
2023-03-05T18:25:40.299Z,1.05
2023-03-05T18:28:10.107Z,1.30
2023-03-05T18:30:37.333Z,1.15
2023-03-05T18:33:04.741Z,1.00
2023-03-05T18:35:32.230Z,1.23
2023-03-05T18:37:59.499Z,1.42
2023-03-05T18:40:29.816Z,1.13
2023-03-05T18:42:58.824Z,1.10
2023-03-05T18:45:25.509Z,1.00
2023-03-05T18:47:54.156Z,1.27
2023-03-05T18:50:21.979Z,1.17
2023-03-05T18:52:49.266Z,1.20
2023-03-05T18:55:18.390Z,1.20
2023-03-05T18:57:45.077Z,1.13
2023-03-05T19:00:21.178Z,1.13
2023-03-05T19:02:48.004Z,1.15
2023-03-05T19:05:16.171Z,1.07
2023-03-05T19:07:43.085Z,1.60
2023-03-05T19:10:12.222Z,1.30
2023-03-05T19:12:48.944Z,1.27
2023-03-05T19:15:16.452Z,1.35
2023-03-05T19:17:43.199Z,1.33
2023-03-05T19:20:13.020Z,1.30
2023-03-05T19:22:40.064Z,1.35
2023-03-05T19:25:07.533Z,1.63
2023-03-05T19:27:34.325Z,1.30
2023-03-05T19:30:01.398Z,1.53
2023-03-05T19:32:28.202Z,1.50
2023-03-05T19:34:56.920Z,1.40
2023-03-05T19:37:24.350Z,1.58
2023-03-05T19:39:51.297Z,1.45
2023-03-05T19:42:18.242Z,1.90
2023-03-05T19:44:45.032Z,1.48
2023-03-05T19:47:11.661Z,1.83
2023-03-05T19:49:38.432Z,1.42
2023-03-05T19:52:06.218Z,1.67
2023-03-05T19:54:33.258Z,1.60
2023-03-05T19:57:00.136Z,1.35
2023-03-05T19:59:26.938Z,1.67
2023-03-05T20:01:53.909Z,1.42
2023-03-05T20:04:22.872Z,1.25
2023-03-05T20:06:49.520Z,1.43
2023-03-05T20:09:16.566Z,1.30
2023-03-05T20:11:43.586Z,1.70
2023-03-05T20:14:10.390Z,1.65
2023-03-05T20:16:37.980Z,1.52
2023-03-05T20:19:06.542Z,1.83
2023-03-05T20:21:36.610Z,1.27
2023-03-05T20:24:09.247Z,1.42
2023-03-05T20:26:38.296Z,1.80
2023-03-05T20:29:05.698Z,1.73
2023-03-05T20:31:37.167Z,1.53
2023-03-05T20:34:10.236Z,1.60
2023-03-05T20:36:36.947Z,1.88
2023-03-05T20:39:05.638Z,1.90
2023-03-05T20:41:34.324Z,1.48
2023-03-05T20:44:01.006Z,1.77
2023-03-05T20:46:30.823Z,1.70
2023-03-05T20:49:00.685Z,1.52
2023-03-05T20:51:35.822Z,1.50
2023-03-05T20:54:05.720Z,1.77
2023-03-05T20:56:33.709Z,1.60
2023-03-05T20:59:03.846Z,1.90
2023-03-05T21:01:33.024Z,1.70
2023-03-05T21:04:01.118Z,2.13
2023-03-05T21:06:29.695Z,1.50
2023-03-05T21:08:56.982Z,1.90
2023-03-05T21:11:24.002Z,1.60
2023-03-05T21:13:50.590Z,1.70
2023-03-05T21:16:20.028Z,1.60
2023-03-05T21:18:46.784Z,1.50
2023-03-05T21:21:13.416Z,1.60
2023-03-05T21:23:40.055Z,1.65
2023-03-05T21:26:06.982Z,1.50
2023-03-05T21:28:33.668Z,1.77
2023-03-05T21:31:07.715Z,1.50
2023-03-05T21:33:34.695Z,1.77
2023-03-05T21:36:01.590Z,1.95
2023-03-05T21:38:30.415Z,2.10
2023-03-05T21:40:58.517Z,2.22
2023-03-05T21:43:26.729Z,2.00
2023-03-05T21:45:54.766Z,1.67
2023-03-05T21:48:22.147Z,2.30
2023-03-05T21:50:49.344Z,1.77
2023-03-05T21:53:17.326Z,1.92
2023-03-05T21:55:58.915Z,1.90
2023-03-05T21:58:25.538Z,2.23
2023-03-05T22:00:52.166Z,1.80
2023-03-05T22:03:18.756Z,1.65
2023-03-05T22:05:45.639Z,1.90
2023-03-05T22:08:12.263Z,1.20
2023-03-05T22:10:40.366Z,1.60
2023-03-05T22:13:11.123Z,1.63
2023-03-05T22:15:49.980Z,1.55
2023-03-05T22:18:19.297Z,1.30
2023-03-05T22:20:46.204Z,1.73
2023-03-05T22:23:13.413Z,1.80
2023-03-05T22:25:40.893Z,1.45
2023-03-05T22:28:09.210Z,1.60
2023-03-05T22:30:36.496Z,1.80
2023-03-05T22:33:03.712Z,1.80
2023-03-05T22:35:30.367Z,1.33
2023-03-05T22:37:58.303Z,1.60
2023-03-05T22:40:25.219Z,1.50
2023-03-05T22:42:51.797Z,1.40
2023-03-05T22:45:19.323Z,1.20
2023-03-05T22:47:48.300Z,1.30
2023-03-05T22:50:15.367Z,1.40
2023-03-05T22:52:42.514Z,1.30
2023-03-05T22:55:12.924Z,1.50
2023-03-05T22:57:39.955Z,1.60
2023-03-05T23:00:09.174Z,1.47
2023-03-05T23:02:35.909Z,1.50
2023-03-05T23:05:03.492Z,1.42
2023-03-05T23:07:33.254Z,1.17
2023-03-05T23:10:05.529Z,1.50
2023-03-05T23:12:34.314Z,1.40
2023-03-05T23:15:03.610Z,1.40
2023-03-05T23:17:30.280Z,1.50
2023-03-05T23:19:56.883Z,1.30
2023-03-05T23:22:23.492Z,1.80
2023-03-05T23:24:50.125Z,1.80
2023-03-05T23:27:18.300Z,1.50
2023-03-05T23:29:58.815Z,1.30
2023-03-05T23:32:29.394Z,1.33
2023-03-05T23:34:56.208Z,1.50
2023-03-05T23:37:22.901Z,1.40
2023-03-05T23:39:49.510Z,1.42
2023-03-05T23:42:16.122Z,1.40
2023-03-05T23:44:42.679Z,1.70
2023-03-05T23:47:09.463Z,1.25
2023-03-05T23:49:36.060Z,1.60
2023-03-05T23:52:03.025Z,1.35
2023-03-05T23:54:29.648Z,1.65
2023-03-05T23:56:56.218Z,1.85
2023-03-05T23:59:22.855Z,1.60
